createdAt,value
2023-03-23T15:59:09.430Z,36.68
2023-03-23T16:01:57.098Z,36.67
2023-03-23T16:04:46.274Z,36.69
2023-03-23T16:07:34.263Z,36.62
2023-03-23T16:10:23.789Z,36.61
2023-03-23T16:13:11.062Z,36.69
2023-03-23T16:15:58.076Z,36.65
2023-03-23T16:18:45.923Z,36.72
2023-03-23T16:21:33.160Z,36.72
2023-03-23T16:24:20.360Z,36.58
2023-03-23T16:27:09.438Z,36.74
2023-03-23T16:30:03.620Z,36.56
2023-03-23T16:32:54.179Z,36.49
2023-03-23T16:35:43.639Z,36.53
2023-03-23T16:38:30.383Z,36.50
2023-03-23T16:41:17.303Z,36.56
2023-03-23T16:44:04.414Z,36.60
2023-03-23T16:46:51.093Z,36.58
2023-03-23T16:49:37.838Z,36.63
2023-03-23T16:52:24.952Z,36.56
2023-03-23T16:55:13.466Z,36.60
2023-03-23T16:58:15.483Z,36.69
2023-03-23T17:01:04.639Z,36.59
2023-03-23T17:03:51.366Z,36.70
2023-03-23T17:06:38.670Z,36.72
2023-03-23T17:09:29.165Z,36.88
2023-03-23T17:12:16.700Z,36.66
2023-03-23T17:15:04.422Z,36.59
2023-03-23T17:17:52.335Z,36.55
2023-03-23T17:20:39.274Z,36.46
2023-03-23T17:23:26.261Z,36.60
2023-03-23T17:26:13.316Z,36.57
2023-03-23T17:29:00.292Z,36.57
2023-03-23T17:31:47.126Z,36.60
2023-03-23T17:34:34.045Z,36.72
2023-03-23T17:37:21.871Z,36.70
2023-03-23T17:40:10.410Z,36.81
2023-03-23T17:42:57.652Z,36.67
2023-03-23T17:45:46.544Z,36.70
2023-03-23T17:48:34.047Z,36.73
2023-03-23T17:51:21.161Z,36.61
2023-03-23T17:54:08.148Z,36.79
2023-03-23T17:56:57.982Z,36.74
2023-03-23T17:59:45.080Z,36.80
2023-03-23T18:02:32.250Z,36.79
2023-03-23T18:05:19.418Z,36.64
2023-03-23T18:08:07.562Z,36.71
2023-03-23T18:10:56.830Z,36.76
2023-03-23T18:13:44.051Z,36.80
2023-03-23T18:16:31.244Z,36.77
2023-03-23T18:19:18.400Z,36.76
2023-03-23T18:22:05.098Z,36.73
2023-03-23T18:24:52.620Z,36.80
2023-03-23T18:27:39.646Z,36.92
2023-03-23T18:30:29.422Z,36.96
2023-03-23T18:33:19.079Z,36.97
2023-03-23T18:36:08.192Z,36.88
2023-03-23T18:38:58.841Z,36.88
2023-03-23T18:41:46.065Z,36.96
2023-03-23T18:44:32.998Z,36.94
2023-03-23T18:47:21.574Z,36.92
2023-03-23T18:50:10.888Z,36.98
2023-03-23T18:52:57.919Z,37.06
2023-03-23T18:55:45.811Z,37.16
2023-03-23T18:58:33.000Z,37.14
2023-03-23T19:01:20.741Z,37.25
2023-03-23T19:04:08.034Z,37.22
2023-03-23T19:06:55.180Z,37.13
2023-03-23T19:09:43.936Z,37.10
2023-03-23T19:12:32.074Z,37.22
2023-03-23T19:15:19.302Z,37.28
2023-03-23T19:18:06.632Z,37.26
2023-03-23T19:21:13.525Z,37.40
2023-03-23T19:24:02.468Z,37.43
2023-03-23T19:26:49.357Z,37.43
2023-03-23T19:29:36.166Z,37.39
2023-03-23T19:32:23.516Z,37.42
2023-03-23T19:35:12.369Z,37.43
2023-03-23T19:37:59.397Z,37.46
2023-03-23T19:40:52.286Z,37.41
2023-03-23T19:43:43.353Z,37.54
2023-03-23T19:46:31.462Z,37.55
2023-03-23T19:49:18.516Z,37.62
2023-03-23T19:52:12.765Z,37.60
2023-03-23T19:55:01.340Z,37.75
2023-03-23T19:57:50.714Z,37.61
2023-03-23T20:00:38.346Z,37.60
2023-03-23T20:03:26.051Z,37.72
2023-03-23T20:06:15.411Z,37.94
2023-03-23T20:09:05.118Z,37.90
2023-03-23T20:11:51.938Z,37.79
2023-03-23T20:14:44.393Z,37.82
2023-03-23T20:17:33.245Z,37.87
2023-03-23T20:20:20.452Z,38.05
2023-03-23T20:23:08.807Z,37.86
2023-03-23T20:26:08.424Z,37.95
2023-03-23T20:28:55.817Z,38.05
2023-03-23T20:31:42.783Z,38.04
2023-03-23T20:34:29.585Z,38.01
2023-03-23T20:37:20.915Z,38.03
2023-03-23T20:40:14.373Z,37.99
2023-03-23T20:43:03.811Z,38.01
2023-03-23T20:45:50.642Z,38.11
2023-03-23T20:48:40.252Z,38.02
2023-03-23T20:51:28.076Z,38.18
2023-03-23T20:54:16.902Z,38.15
2023-03-23T20:57:04.059Z,38.02
2023-03-23T20:59:52.507Z,38.19
2023-03-23T21:02:39.675Z,38.24
2023-03-23T21:05:26.508Z,38.19
2023-03-23T21:08:13.727Z,38.38
2023-03-23T21:11:00.602Z,38.26
2023-03-23T21:13:47.574Z,38.22
2023-03-23T21:16:35.087Z,38.28
2023-03-23T21:19:22.312Z,38.20
2023-03-23T21:22:10.451Z,38.21
2023-03-23T21:24:56.951Z,38.25
2023-03-23T21:27:43.866Z,38.24
2023-03-23T21:30:31.692Z,38.23
2023-03-23T21:33:20.127Z,38.34
2023-03-23T21:36:08.279Z,38.36
2023-03-23T21:38:56.159Z,38.34
2023-03-23T21:41:43.443Z,38.16
2023-03-23T21:44:30.153Z,38.24
2023-03-23T21:47:18.158Z,38.35
2023-03-23T21:50:07.258Z,38.30
2023-03-23T21:52:54.266Z,38.31
2023-03-23T21:55:45.087Z,38.44
2023-03-23T21:58:32.201Z,38.48
2023-03-23T22:01:19.526Z,38.38
2023-03-23T22:04:07.724Z,38.45
2023-03-23T22:06:54.577Z,38.29
2023-03-23T22:09:45.082Z,38.35
2023-03-23T22:12:31.990Z,38.41
2023-03-23T22:15:19.316Z,38.48
2023-03-23T22:18:06.648Z,38.47
2023-03-23T22:20:54.356Z,38.53
2023-03-23T22:23:42.991Z,38.49
2023-03-23T22:26:30.727Z,38.69
2023-03-23T22:29:17.408Z,38.58
2023-03-23T22:32:04.862Z,38.75
2023-03-23T22:34:52.115Z,38.59
2023-03-23T22:37:39.224Z,38.72
2023-03-23T22:40:25.945Z,38.66
2023-03-23T22:43:12.951Z,38.78
2023-03-23T22:46:00.127Z,38.70
2023-03-23T22:48:47.067Z,38.72
2023-03-23T22:51:33.866Z,38.79
2023-03-23T22:54:21.032Z,38.86
2023-03-23T22:57:07.755Z,38.87
2023-03-23T22:59:54.756Z,38.72
2023-03-23T23:02:43.271Z,38.81
2023-03-23T23:05:30.002Z,38.75
2023-03-23T23:08:18.046Z,38.88
2023-03-23T23:11:06.105Z,38.90
2023-03-23T23:13:53.687Z,38.92
2023-03-23T23:16:41.467Z,38.97
2023-03-23T23:19:28.365Z,38.90
2023-03-23T23:22:19.256Z,39.00
2023-03-23T23:25:07.834Z,39.06
2023-03-23T23:27:56.283Z,39.10
2023-03-23T23:30:43.427Z,38.83
2023-03-23T23:33:31.021Z,38.92
2023-03-23T23:36:18.554Z,38.89
2023-03-23T23:39:07.938Z,38.91
2023-03-23T23:41:55.962Z,38.95
2023-03-23T23:44:45.419Z,39.04
2023-03-23T23:47:32.675Z,39.05
2023-03-23T23:50:20.403Z,39.10
2023-03-23T23:53:09.938Z,39.07
2023-03-23T23:55:57.098Z,38.98
2023-03-23T23:58:44.050Z,39.19
